EGPC

Details ICAO EGPC (WIC)
Name Wick
Region United Kingdom
Timezone Europe/London (UTC+0.0)
Plans Departing 78
Arriving 94
Stats Elevation 126 ft / 38 m (AMSL)
Location 58.457866° -3.092981°
Runways 2
Magnetic Variation 2.628° W
Sunrise 2017-12-15 08:57:22 UTC / 2017-12-15 08:57:22 Local
Sunset 2017-12-15 15:20:29 UTC / 2017-12-15 15:20:29 Local
Advertisement - Login to hide

Runways

ID Width Length Bearing (true) Bearing (mag) Surface Threshold Offset Overrun Length
08 148 ft / 45 m 3,390 ft / 1,033 m 75.45° 78.08° Asphalt 0 ft / 0 m 0 ft / 0 m
13 148 ft / 45 m 5,978 ft / 1,822 m 127.02° 129.65° Asphalt 814 ft / 248 m 0 ft / 0 m
26 148 ft / 45 m 3,390 ft / 1,033 m 255.46° 258.09° Asphalt 0 ft / 0 m 0 ft / 0 m
31 148 ft / 45 m 5,978 ft / 1,822 m 307.04° 309.67° Asphalt 1,010 ft / 308 m 0 ft / 0 m

Map

Weather


0- 5 10 15 20 25 30 35+ Temperature / ° C

Clouds and Precipitation
Forecast for 2017-12-15 00:00 UTC. Updated an hour ago

Ground ~20,000 ft ~40,000 ft Winds

METAR

EGPC 150020Z AUTO 04020KT 9999 FEW016/// SCT020/// 05/04 Q0991 RERA

TAF

Not found

Frequencies

Tower 119.70 MHz Wick Tower
Approach 119.70 MHz Wick Approach
Warning: Do not use this data for real-world aviation or navigation. No guarantee of current accuracy is given.